»·PEaware :: DAL6154 KLAX-KSAN

DAL6154 :: KLAX-KSAN

FLIGHT INFORMATION

Flight Status: Arrived
Operator:
Delta Air Lines
More flights by this operator :: More flights under this callsign
Pilot: Tyler J. (19619)
Aircraft: BOEING 717-200
(B712)
More flights by this aircraft type
Origin: KLAX Los Angeles Intl
United States
Destination: KSAN San Diego Intl-Lindbergh
United States
More flights between these airports :: More routes between these airports
Route: LAXX1 MZB
File this flight plan on PilotEdge
Remarks:
Altitude:
(Current/Filed)
17,000ft
Speed:
(Current/Filed)
350kts
Departed: 04-Aug-18 09:39 PM
Arrived: 04-Aug-18 10:11 PM
Distance/Time
Traveled:
94nm/0:31
Distance/Time
To Go:
Arrived

Flight Plot

Page will automatically refresh every two minutes.

Flight plan parsing failed; only flown route is shown


Map Options




Map Legend


Flown Route
Filed Route
Departure Airport
Arrival Airport
Navaid (VOR, NDB)
Fix

Horizontal Profiles

Position Reports

Time Latitude Longitude Heading Altitude Ground
Speed
04-Aug-18 21:05 33.940810 -118.403627 272 134ft 0kts
04-Aug-18 21:06 33.940810 -118.403627 272 134ft 0kts
04-Aug-18 21:07 33.940810 -118.403627 272 134ft 0kts
04-Aug-18 21:08 33.940810 -118.403627 272 134ft 0kts
04-Aug-18 21:09 33.940810 -118.403627 272 134ft 0kts
04-Aug-18 21:10 33.940810 -118.403627 272 134ft 0kts
04-Aug-18 21:11 33.940810 -118.403627 272 134ft 0kts
04-Aug-18 21:12 33.940810 -118.403627 272 134ft 0kts
04-Aug-18 21:13 33.940810 -118.403627 272 134ft 0kts
04-Aug-18 21:14 33.940810 -118.403627 272 134ft 0kts
04-Aug-18 21:15 33.940810 -118.403627 272 134ft 0kts
04-Aug-18 21:16 33.940810 -118.403627 272 134ft 0kts
04-Aug-18 21:17 33.940810 -118.403627 272 134ft 0kts
04-Aug-18 21:18 33.940810 -118.403627 272 134ft 0kts
04-Aug-18 21:19 33.940810 -118.403627 272 134ft 0kts
04-Aug-18 21:20 33.940810 -118.403627 272 134ft 0kts
04-Aug-18 21:21 33.940810 -118.403627 272 134ft 0kts
04-Aug-18 21:22 33.940810 -118.403627 272 134ft 0kts
04-Aug-18 21:23 33.940810 -118.403627 272 134ft 0kts
04-Aug-18 21:24 33.940810 -118.403627 272 134ft 0kts
04-Aug-18 21:25 33.940810 -118.403627 272 134ft 0kts
04-Aug-18 21:26 33.940810 -118.403627 272 134ft 0kts
04-Aug-18 21:27 33.940865 -118.403231 231 134ft 2kts
04-Aug-18 21:28 33.941110 -118.403161 174 134ft 0kts
04-Aug-18 21:29 33.941110 -118.403161 174 134ft 0kts
04-Aug-18 21:30 33.940333 -118.403073 173 134ft 0kts
04-Aug-18 21:31 33.938548 -118.402336 98 134ft 9kts
04-Aug-18 21:32 33.939239 -118.396052 83 134ft 22kts
04-Aug-18 21:33 33.939929 -118.388963 82 134ft 22kts
04-Aug-18 21:38 33.940751 -118.380889 93 134ft 0kts
04-Aug-18 21:39 33.940021 -118.380245 216 134ft 9kts
04-Aug-18 21:40 33.937582 -118.402957 262 250ft 168kts
04-Aug-18 21:41 33.929506 -118.469050 262 2478ft 217kts
04-Aug-18 21:42 33.914750 -118.541032 236 3829ft 229kts
04-Aug-18 21:43 33.872239 -118.608602 233 5521ft 272kts
04-Aug-18 21:44 33.803024 -118.622534 156 7870ft 291kts
04-Aug-18 21:45 33.742007 -118.559945 103 10360ft 312kts
04-Aug-18 21:46 33.714036 -118.447362 110 10776ft 389kts
04-Aug-18 21:47 33.675590 -118.322964 110 11005ft 398kts
04-Aug-18 21:48 33.637097 -118.198565 110 11006ft 397kts
04-Aug-18 21:49 33.598487 -118.074304 110 11009ft 397kts
04-Aug-18 21:50 33.559732 -117.950088 110 11013ft 397kts
04-Aug-18 21:51 33.520866 -117.826017 110 11018ft 397kts
04-Aug-18 21:52 33.479820 -117.703572 122 11012ft 396kts
04-Aug-18 21:53 33.404202 -117.608812 136 11017ft 394kts
04-Aug-18 21:54 33.325560 -117.517066 136 11023ft 394kts
04-Aug-18 21:55 33.246139 -117.427044 145 10989ft 393kts
04-Aug-18 21:56 33.152574 -117.380761 162 10781ft 309kts
04-Aug-18 21:57 33.076211 -117.348737 162 9068ft 286kts
04-Aug-18 21:58 33.001868 -117.317545 162 8018ft 283kts
04-Aug-18 21:59 32.928210 -117.286684 161 6835ft 278kts
04-Aug-18 22:00 32.855767 -117.256375 161 5593ft 273kts
04-Aug-18 22:01 32.784720 -117.226701 162 5005ft 270kts
04-Aug-18 22:02 32.713973 -117.197330 162 4994ft 265kts
04-Aug-18 22:03 32.656557 -117.159759 114 4989ft 240kts
04-Aug-18 22:04 32.640525 -117.082397 102 4996ft 241kts
04-Aug-18 22:05 32.626870 -117.006280 102 4094ft 232kts
04-Aug-18 22:06 32.640254 -116.938822 21 4004ft 231kts
04-Aug-18 22:07 32.685334 -116.975113 290 4027ft 223kts
04-Aug-18 22:08 32.701203 -117.038077 279 3464ft 162kts
04-Aug-18 22:09 32.709518 -117.088463 283 2059ft 164kts
04-Aug-18 22:10 32.721744 -117.140248 285 1082ft 156kts
04-Aug-18 22:11 32.732969 -117.187308 285 24ft 131kts
04-Aug-18 22:12 32.735726 -117.202413 194 23ft 7kts
04-Aug-18 22:13 32.734901 -117.203901 211 23ft 1kts
04-Aug-18 22:14 32.734895 -117.203906 211 23ft 0kts
04-Aug-18 22:15 32.734895 -117.203906 211 23ft 0kts
04-Aug-18 22:16 32.734895 -117.203906 211 23ft 0kts
04-Aug-18 22:17 32.734895 -117.203906 211 23ft 0kts
04-Aug-18 22:18 32.734895 -117.203906 211 23ft 0kts
04-Aug-18 22:19 32.734895 -117.203906 211 23ft 0kts

Navigation Log

Ident Type
Flight plan parsing failed, navigation log unavailable